createdAt,value
2022-12-19T00:01:32.332Z,101214.22
2022-12-19T00:04:08.265Z,101193.09
2022-12-19T00:06:36.788Z,101194.19
2022-12-19T00:09:03.731Z,101190.63
2022-12-19T00:11:30.263Z,101187.19
2022-12-19T00:13:57.528Z,101185.44
2022-12-19T00:16:26.477Z,101187.19
2022-12-19T00:18:55.146Z,101178.44
2022-12-19T00:21:24.355Z,101189.03
2022-12-19T00:23:52.165Z,101208.38
2022-12-19T00:26:27.885Z,101196.97
2022-12-19T00:28:57.271Z,101182.28
2022-12-19T00:31:25.779Z,101176.22
2022-12-19T00:33:52.376Z,101171.94
2022-12-19T00:36:22.899Z,101163.28
2022-12-19T00:38:51.674Z,101148.50
2022-12-19T00:41:22.830Z,101170.34
2022-12-19T00:43:59.951Z,101136.25
2022-12-19T00:46:28.321Z,101143.38
2022-12-19T00:48:55.487Z,101161.75
2022-12-19T00:51:24.936Z,101166.13
2022-12-19T00:53:53.318Z,101148.72
2022-12-19T00:56:29.611Z,101134.00
2022-12-19T00:58:56.718Z,101157.59
2022-12-19T01:01:27.523Z,101154.03
2022-12-19T01:04:26.540Z,101160.19
2022-12-19T01:06:41.298Z,101138.50
2022-12-19T01:09:09.012Z,101146.28
2022-12-19T01:11:54.206Z,101146.44
2022-12-19T01:14:23.020Z,101139.44
2022-12-19T01:16:50.776Z,101135.00
2022-12-19T01:19:17.364Z,101158.59
2022-12-19T01:21:43.938Z,101143.72
2022-12-19T01:24:11.207Z,101141.94
2022-12-19T01:26:37.670Z,101129.81
2022-12-19T01:29:04.949Z,101134.22
2022-12-19T01:31:32.884Z,101129.03
2022-12-19T01:34:00.534Z,101128.06
2022-12-19T01:36:28.040Z,101117.66
2022-12-19T01:38:58.142Z,101117.69
2022-12-19T01:41:24.762Z,101097.59
2022-12-19T01:44:01.721Z,101112.63
2022-12-19T01:46:34.012Z,101128.13
2022-12-19T01:49:01.016Z,101130.00
2022-12-19T01:51:35.412Z,101114.22
2022-12-19T01:54:05.070Z,101113.25
2022-12-19T01:56:37.118Z,101113.31
2022-12-19T01:59:07.103Z,101114.22
2022-12-19T02:01:34.856Z,101097.63
2022-12-19T02:04:02.402Z,101090.69
2022-12-19T02:06:29.252Z,101104.66
2022-12-19T02:08:55.918Z,101102.13
2022-12-19T02:11:22.522Z,101095.97
2022-12-19T02:13:49.354Z,101091.44
2022-12-19T02:16:20.018Z,101089.81
2022-12-19T02:19:15.296Z,101082.88
2022-12-19T02:21:46.807Z,101076.72
2022-12-19T02:24:47.060Z,101060.88
2022-12-19T02:27:40.003Z,101058.34
2022-12-19T02:30:16.317Z,101061.84
2022-12-19T02:32:49.659Z,101061.88
2022-12-19T02:35:22.629Z,101047.88
2022-12-19T02:37:53.851Z,101053.06
2022-12-19T02:40:24.281Z,101047.75
2022-12-19T02:42:59.025Z,101076.56
2022-12-19T02:45:29.580Z,101064.22
2022-12-19T02:47:58.313Z,101067.78
2022-12-19T02:50:37.318Z,101064.97
2022-12-19T02:53:04.032Z,101065.91
2022-12-19T02:55:35.048Z,101067.56
2022-12-19T02:58:20.086Z,101071.81
2022-12-19T03:00:55.808Z,101085.91
2022-12-19T03:03:29.966Z,101082.22
2022-12-19T03:06:18.372Z,101088.44
2022-12-19T03:08:50.355Z,101074.19
2022-12-19T03:11:17.181Z,101075.91
2022-12-19T03:13:46.882Z,101072.31
2022-12-19T03:16:13.823Z,101067.00
2022-12-19T03:18:41.186Z,101077.56
2022-12-19T03:21:33.179Z,101070.44
2022-12-19T03:24:00.725Z,101076.44
2022-12-19T03:26:29.382Z,101093.09
2022-12-19T03:29:08.298Z,101097.38
2022-12-19T03:31:35.954Z,101087.78
2022-12-19T03:34:10.618Z,101093.75
2022-12-19T03:36:44.271Z,101091.94
2022-12-19T03:39:12.588Z,101099.75
2022-12-19T03:41:57.787Z,101098.84
2022-12-19T03:44:26.745Z,101089.88
2022-12-19T03:47:17.575Z,101093.34
2022-12-19T03:49:45.306Z,101086.34
2022-12-19T03:52:22.915Z,101089.69
2022-12-19T03:54:54.854Z,101116.03
2022-12-19T03:57:28.768Z,101093.22
2022-12-19T03:59:59.221Z,101093.94
2022-12-19T04:02:26.012Z,101092.03
2022-12-19T04:04:56.286Z,101100.84
2022-12-19T04:07:23.560Z,101098.16
2022-12-19T04:09:51.425Z,101103.31
2022-12-19T04:12:20.707Z,101081.28
2022-12-19T04:14:47.502Z,101084.91
2022-12-19T04:17:38.925Z,101104.88
2022-12-19T04:20:11.769Z,101088.22
2022-12-19T04:22:47.481Z,101084.69
2022-12-19T04:25:21.032Z,101089.75
2022-12-19T04:27:52.633Z,101094.88
2022-12-19T04:30:20.007Z,101100.22
2022-12-19T04:32:47.342Z,101089.59
2022-12-19T04:35:14.437Z,101084.34
2022-12-19T04:37:41.369Z,101090.38
2022-12-19T04:40:09.361Z,101073.78
2022-12-19T04:42:35.928Z,101078.28
2022-12-19T04:45:02.887Z,101054.41
2022-12-19T04:47:30.019Z,101056.97
2022-12-19T04:49:56.555Z,101069.31
2022-12-19T04:52:23.263Z,101050.75
2022-12-19T04:54:50.808Z,101080.69
2022-12-19T04:57:17.246Z,101066.59
2022-12-19T04:59:43.669Z,101063.06
2022-12-19T05:02:10.522Z,101061.38
2022-12-19T05:04:37.220Z,101062.13
2022-12-19T05:07:03.755Z,101080.53
2022-12-19T05:09:30.170Z,101066.50
2022-12-19T05:11:56.632Z,101064.66
2022-12-19T05:14:23.192Z,101067.19
2022-12-19T05:16:49.737Z,101081.19
2022-12-19T05:19:16.231Z,101087.47
2022-12-19T05:21:42.685Z,101075.00
2022-12-19T05:24:09.144Z,101087.28
2022-12-19T05:26:35.583Z,101083.91
2022-12-19T05:29:02.134Z,101080.31
2022-12-19T05:31:28.738Z,101077.63
2022-12-19T05:33:55.202Z,101080.31
2022-12-19T05:36:25.375Z,101076.81
2022-12-19T05:38:54.209Z,101086.34
2022-12-19T05:41:21.231Z,101075.03
2022-12-19T05:43:55.408Z,101076.72
2022-12-19T05:46:22.924Z,101063.47
2022-12-19T05:48:49.840Z,101088.84
2022-12-19T05:51:16.660Z,101102.16
2022-12-19T05:53:43.325Z,101083.69
2022-12-19T05:56:12.690Z,101081.78
2022-12-19T05:58:40.043Z,101076.34
2022-12-19T06:01:21.249Z,101090.31
2022-12-19T06:03:47.986Z,101079.69
2022-12-19T06:06:20.400Z,101081.22
2022-12-19T06:08:47.435Z,101075.13
2022-12-19T06:11:14.843Z,101074.06
2022-12-19T06:13:41.720Z,101071.34
2022-12-19T06:16:13.832Z,101079.28
2022-12-19T06:18:44.521Z,101071.22
2022-12-19T06:21:14.583Z,101073.00
2022-12-19T06:23:41.728Z,101079.03
2022-12-19T06:26:11.102Z,101085.88
2022-12-19T06:28:39.816Z,101091.94
2022-12-19T06:31:07.618Z,101081.50
2022-12-19T06:33:34.277Z,101096.28
2022-12-19T06:36:06.082Z,101084.88
2022-12-19T06:38:33.714Z,101095.50
2022-12-19T06:41:19.065Z,101072.78
2022-12-19T06:43:50.539Z,101092.09
2022-12-19T06:46:19.821Z,101074.56
2022-12-19T06:48:46.378Z,101081.50
2022-12-19T06:51:12.836Z,101078.88
2022-12-19T06:53:40.324Z,101070.88
2022-12-19T06:56:07.260Z,101075.09
2022-12-19T06:58:34.341Z,101071.56
2022-12-19T07:01:01.609Z,101092.66
2022-12-19T07:03:34.708Z,101076.72
2022-12-19T07:06:01.164Z,101066.28
2022-12-19T07:08:29.678Z,101074.13
2022-12-19T07:10:57.136Z,101082.75
2022-12-19T07:13:23.708Z,101080.00
2022-12-19T07:15:51.253Z,101070.41
2022-12-19T07:18:17.716Z,101077.34
2022-12-19T07:20:45.358Z,101065.03
2022-12-19T07:23:17.088Z,101082.50
2022-12-19T07:25:43.666Z,101080.69
2022-12-19T07:28:10.618Z,101064.72
2022-12-19T07:30:37.283Z,101079.59
2022-12-19T07:33:03.844Z,101068.09
2022-12-19T07:35:30.415Z,101068.06
2022-12-19T07:38:04.135Z,101060.06
2022-12-19T07:40:32.042Z,101054.88
2022-12-19T07:43:03.113Z,101058.38
2022-12-19T07:45:32.455Z,101059.19
2022-12-19T07:48:03.247Z,101065.97
2022-12-19T07:50:29.945Z,101070.41
2022-12-19T07:52:58.012Z,101079.19
2022-12-19T07:55:25.632Z,101076.56
2022-12-19T07:57:52.259Z,101076.38
2022-12-19T08:00:18.988Z,101078.75
2022-12-19T08:02:45.603Z,101074.19
2022-12-19T08:05:12.586Z,101092.66
2022-12-19T08:07:39.285Z,101082.91
2022-12-19T08:10:06.968Z,101081.91
2022-12-19T08:12:34.082Z,101077.28
2022-12-19T08:15:00.633Z,101081.50
2022-12-19T08:17:27.141Z,101070.00
2022-12-19T08:19:53.636Z,101076.84
2022-12-19T08:22:20.076Z,101066.19
2022-12-19T08:24:46.568Z,101053.00
2022-12-19T08:27:13.066Z,101041.34
2022-12-19T08:29:39.534Z,101044.66
2022-12-19T08:32:05.938Z,101040.25
2022-12-19T08:34:32.861Z,101046.22
2022-12-19T08:36:59.315Z,101054.28
2022-12-19T08:39:25.804Z,101031.25
2022-12-19T08:41:52.265Z,101027.81
2022-12-19T08:44:18.695Z,101033.66
2022-12-19T08:46:49.985Z,101016.84
2022-12-19T08:49:17.300Z,101040.59
2022-12-19T08:51:43.873Z,101025.69
2022-12-19T08:54:11.886Z,101003.38
2022-12-19T08:56:41.925Z,101012.16
2022-12-19T08:59:15.831Z,101010.34
2022-12-19T09:01:47.907Z,101006.56
2022-12-19T09:05:24.261Z,101037.25
2022-12-19T09:07:06.531Z,101017.63
2022-12-19T09:09:32.972Z,101001.75
2022-12-19T09:11:59.438Z,100998.19
2022-12-19T09:14:25.903Z,100992.03
2022-12-19T09:16:54.469Z,101000.59
2022-12-19T09:19:24.314Z,100991.34
2022-12-19T09:21:50.984Z,100979.13
2022-12-19T09:24:17.681Z,100992.00
2022-12-19T09:26:45.752Z,100981.97
2022-12-19T09:29:20.581Z,100989.88
2022-12-19T09:31:56.264Z,100968.84
2022-12-19T09:34:37.328Z,100978.28
2022-12-19T09:37:07.643Z,100973.25
2022-12-19T09:39:35.222Z,100958.28
2022-12-19T09:42:23.196Z,100970.00
2022-12-19T09:45:29.897Z,100970.84
2022-12-19T09:47:59.296Z,100979.97
2022-12-19T09:50:55.443Z,100956.19
2022-12-19T09:53:42.910Z,100966.53
2022-12-19T09:56:14.950Z,100962.06
2022-12-19T09:58:46.579Z,100956.34
2022-12-19T10:01:22.741Z,100964.34
2022-12-19T10:04:13.861Z,100952.66
2022-12-19T10:07:21.277Z,100949.06
2022-12-19T10:11:42.852Z,100954.97
2022-12-19T10:13:02.599Z,100953.88
2022-12-19T10:16:00.221Z,100951.41
2022-12-19T10:18:38.231Z,100958.94
2022-12-19T10:21:42.891Z,100949.91
2022-12-19T10:25:08.280Z,100932.94
2022-12-19T10:27:59.158Z,100935.59
2022-12-19T10:30:27.951Z,100941.56
2022-12-19T10:33:20.750Z,100940.69
2022-12-19T10:35:53.189Z,100937.00
2022-12-19T10:38:27.537Z,100928.16
2022-12-19T10:41:09.179Z,100935.81
2022-12-19T10:43:50.913Z,100925.78
2022-12-19T10:46:21.573Z,100913.69
2022-12-19T10:48:51.406Z,100938.88
2022-12-19T10:51:27.657Z,100923.78
2022-12-19T10:53:57.290Z,100925.03
2022-12-19T10:56:33.153Z,100924.28
2022-12-19T10:59:04.921Z,100909.75
2022-12-19T11:01:40.775Z,100916.56
2022-12-19T11:04:28.808Z,100916.28
2022-12-19T11:07:02.355Z,100899.06
2022-12-19T11:09:30.806Z,100903.09
2022-12-19T11:15:55.638Z,100906.81
2022-12-19T11:19:43.496Z,100900.03
2022-12-19T11:25:40.781Z,100901.16
2022-12-19T11:29:31.324Z,100893.56
2022-12-19T11:29:37.049Z,100883.50
2022-12-19T11:30:46.256Z,100886.16
2022-12-19T11:33:18.814Z,100863.84
2022-12-19T11:35:54.566Z,100864.13
2022-12-19T11:38:43.165Z,100860.25
2022-12-19T11:41:23.074Z,100875.56
2022-12-19T11:44:03.531Z,100875.22
2022-12-19T11:46:41.082Z,100851.38
2022-12-19T11:49:22.948Z,100844.78
2022-12-19T11:51:56.636Z,100841.84
2022-12-19T11:54:43.389Z,100842.56
2022-12-19T11:57:11.839Z,100854.16
2022-12-19T11:59:39.476Z,100837.50
2022-12-19T12:02:43.071Z,100840.97
2022-12-19T12:05:34.600Z,100837.41
2022-12-19T12:11:34.066Z,100815.56
2022-12-19T12:16:34.972Z,100831.66
2022-12-19T12:21:50.666Z,100810.47
2022-12-19T12:31:10.131Z,100802.34
2022-12-19T12:31:14.423Z,100815.03
2022-12-19T12:31:43.660Z,100825.66
2022-12-19T12:31:43.769Z,100810.22
2022-12-19T12:31:43.771Z,100823.06
2022-12-19T12:35:54.026Z,100812.34
2022-12-19T12:39:16.055Z,100801.22
2022-12-19T12:42:04.955Z,100810.56
2022-12-19T12:44:45.141Z,100801.69
2022-12-19T12:47:21.939Z,100779.81
2022-12-19T12:49:52.744Z,100785.59
2022-12-19T12:52:33.919Z,100793.63
2022-12-19T12:55:00.612Z,100779.88
2022-12-19T12:57:27.032Z,100767.41
2022-12-19T13:00:30.926Z,100787.06
2022-12-19T13:03:05.314Z,100782.69
2022-12-19T13:05:31.885Z,100781.31
2022-12-19T13:07:58.396Z,100772.66
2022-12-19T13:10:25.713Z,100767.84
2022-12-19T13:13:12.631Z,100771.69
2022-12-19T13:15:45.274Z,100764.03
2022-12-19T13:18:37.497Z,100753.75
2022-12-19T13:21:06.507Z,100764.41
2022-12-19T13:23:43.117Z,100748.47
2022-12-19T13:26:45.017Z,100751.16
2022-12-19T13:29:54.429Z,100762.38
2022-12-19T13:32:21.955Z,100752.81
2022-12-19T13:34:58.258Z,100754.81
2022-12-19T13:39:55.536Z,100758.31
2022-12-19T13:40:55.244Z,100750.56
2022-12-19T13:43:44.249Z,100756.66
2022-12-19T13:46:45.237Z,100753.28
2022-12-19T13:49:13.611Z,100747.00
2022-12-19T13:51:48.322Z,100742.50
2022-12-19T13:54:32.941Z,100741.84
2022-12-19T13:57:03.335Z,100742.72
2022-12-19T13:59:38.057Z,100734.84
2022-12-19T14:02:16.011Z,100743.50
2022-12-19T14:04:44.757Z,100753.47
2022-12-19T14:07:37.690Z,100734.84
2022-12-19T14:11:40.744Z,100740.41
2022-12-19T14:13:58.131Z,100737.75
2022-12-19T14:16:05.973Z,100719.09
2022-12-19T14:18:44.892Z,100728.75
2022-12-19T14:22:04.209Z,100723.47
2022-12-19T14:24:22.289Z,100728.56
2022-12-19T14:28:18.860Z,100723.28
2022-12-19T14:30:28.034Z,100717.25
2022-12-19T14:33:39.385Z,100711.84
2022-12-19T14:36:08.487Z,100707.41
2022-12-19T14:39:22.229Z,100713.56
2022-12-19T14:41:09.334Z,100718.63
2022-12-19T14:43:59.272Z,100723.00
2022-12-19T14:54:00.209Z,100729.03
2022-12-19T14:54:07.517Z,100723.06
2022-12-19T14:54:40.478Z,100717.47
2022-12-19T14:56:13.642Z,100703.19
2022-12-19T14:58:54.359Z,100710.50
2022-12-19T15:01:29.992Z,100707.69
2022-12-19T15:04:50.455Z,100724.50
2022-12-19T15:07:08.330Z,100709.22
2022-12-19T15:11:04.818Z,100696.84
2022-12-19T15:14:46.908Z,100695.91
2022-12-19T15:15:56.409Z,100694.06
2022-12-19T15:18:32.192Z,100718.66
2022-12-19T15:21:04.188Z,100711.72
2022-12-19T15:23:31.375Z,100722.09
2022-12-19T15:26:03.912Z,100717.66
2022-12-19T15:28:39.974Z,100723.81
2022-12-19T15:31:38.546Z,100717.78
2022-12-19T15:36:57.972Z,100715.72
2022-12-19T15:39:26.000Z,100720.09
2022-12-19T15:41:53.902Z,100707.78
2022-12-19T15:44:32.582Z,100711.19
2022-12-19T15:47:00.223Z,100703.19
2022-12-19T15:49:26.835Z,100682.88
2022-12-19T15:51:53.381Z,100685.69
2022-12-19T15:57:24.231Z,100672.63
2022-12-19T15:59:50.982Z,100697.97
2022-12-19T16:02:20.790Z,100669.84
2022-12-19T16:04:48.103Z,100689.09
2022-12-19T16:07:20.044Z,100694.19
2022-12-19T16:09:47.044Z,100677.53
2022-12-19T16:12:16.290Z,100690.91
2022-12-19T16:14:43.609Z,100696.13
2022-12-19T16:17:18.461Z,100674.88
2022-12-19T16:19:45.185Z,100674.03
2022-12-19T16:22:22.998Z,100669.59
2022-12-19T16:24:50.826Z,100681.88
2022-12-19T16:27:22.360Z,100662.28
2022-12-19T16:29:49.018Z,100666.72
2022-12-19T16:32:16.363Z,100666.72
2022-12-19T16:34:42.968Z,100651.78
2022-12-19T16:37:09.895Z,100669.38
2022-12-19T16:39:36.641Z,100655.16
2022-12-19T16:42:05.018Z,100672.81
2022-12-19T16:44:33.509Z,100663.88
2022-12-19T16:47:00.006Z,100665.59
2022-12-19T16:49:27.828Z,100652.22
2022-12-19T16:51:54.358Z,100657.44
2022-12-19T16:54:20.904Z,100667.16
2022-12-19T16:56:53.577Z,100670.59
2022-12-19T16:59:25.919Z,100672.31
2022-12-19T17:01:52.578Z,100660.94
2022-12-19T17:04:22.432Z,100668.03
2022-12-19T17:06:50.165Z,100659.06
2022-12-19T17:09:24.672Z,100656.44
2022-12-19T17:11:53.836Z,100652.75
2022-12-19T17:14:29.826Z,100665.84
2022-12-19T17:16:58.450Z,100669.41
2022-12-19T17:19:29.828Z,100659.47
2022-12-19T17:21:56.263Z,100658.63
2022-12-19T17:24:22.733Z,100657.91
2022-12-19T17:26:49.267Z,100660.41
2022-12-19T17:29:15.715Z,100662.19
2022-12-19T17:31:42.628Z,100654.31
2022-12-19T17:34:25.810Z,100651.47
2022-12-19T17:36:52.438Z,100661.25
2022-12-19T17:39:25.397Z,100660.41
2022-12-19T17:41:52.709Z,100654.09
2022-12-19T17:44:19.356Z,100661.19
2022-12-19T17:46:46.091Z,100658.41
2022-12-19T17:49:31.689Z,100668.13
2022-12-19T17:51:59.483Z,100665.56
2022-12-19T17:54:26.953Z,100661.97
2022-12-19T17:56:53.663Z,100661.03
2022-12-19T17:59:20.925Z,100655.81
2022-12-19T18:01:47.779Z,100654.97
2022-12-19T18:04:17.188Z,100656.75
2022-12-19T18:06:43.969Z,100646.25
2022-12-19T18:09:24.453Z,100642.50
2022-12-19T18:11:51.624Z,100653.88
2022-12-19T18:14:18.665Z,100644.22
2022-12-19T18:16:46.436Z,100653.88
2022-12-19T18:19:21.368Z,100659.19
2022-12-19T18:21:47.928Z,100648.53
2022-12-19T18:24:17.715Z,100651.88
2022-12-19T18:26:44.807Z,100643.94
2022-12-19T18:29:11.510Z,100656.38
2022-12-19T18:31:43.447Z,100656.25
2022-12-19T18:34:23.538Z,100655.47
2022-12-19T18:36:51.738Z,100644.00
2022-12-19T18:39:21.529Z,100649.22
2022-12-19T18:41:48.700Z,100648.38
2022-12-19T18:44:15.505Z,100638.78
2022-12-19T18:46:42.406Z,100628.13
2022-12-19T18:49:17.670Z,100629.91
2022-12-19T18:51:44.837Z,100631.63
2022-12-19T18:54:13.974Z,100636.75
2022-12-19T18:56:41.140Z,100629.78
2022-12-19T18:59:07.657Z,100634.22
2022-12-19T19:01:35.038Z,100627.00
2022-12-19T19:04:01.725Z,100613.09
2022-12-19T19:06:35.751Z,100602.31
2022-12-19T19:09:04.356Z,100605.94
2022-12-19T19:11:30.812Z,100616.41
2022-12-19T19:13:57.442Z,100594.38
2022-12-19T19:16:27.254Z,100598.75
2022-12-19T19:18:55.987Z,100608.41
2022-12-19T19:21:28.666Z,100601.31
2022-12-19T19:24:01.574Z,100595.09
2022-12-19T19:26:53.681Z,100591.59
2022-12-19T19:29:20.549Z,100591.50
2022-12-19T19:31:48.508Z,100595.03
2022-12-19T19:34:29.899Z,100611.53
2022-12-19T19:37:00.329Z,100618.56
2022-12-19T19:39:28.002Z,100605.31
2022-12-19T19:41:56.313Z,100608.75
2022-12-19T19:44:23.485Z,100607.81
2022-12-19T19:46:50.246Z,100590.34
2022-12-19T19:49:17.333Z,100594.56
2022-12-19T19:51:43.916Z,100585.75
2022-12-19T19:54:11.226Z,100575.09
2022-12-19T19:56:37.716Z,100576.72
2022-12-19T19:59:04.496Z,100571.28
2022-12-19T20:01:31.496Z,100565.13
2022-12-19T20:03:58.118Z,100565.81
2022-12-19T20:06:25.206Z,100563.94
2022-12-19T20:08:51.808Z,100563.84
2022-12-19T20:11:18.641Z,100574.44
2022-12-19T20:13:45.150Z,100576.16
2022-12-19T20:16:18.367Z,100601.00
2022-12-19T20:18:52.320Z,100570.09
2022-12-19T20:21:20.078Z,100568.28
2022-12-19T20:23:47.000Z,100564.78
2022-12-19T20:26:15.494Z,100564.56
2022-12-19T20:28:48.225Z,100568.84
2022-12-19T20:31:16.978Z,100574.38
2022-12-19T20:33:43.520Z,100579.59
2022-12-19T20:36:11.334Z,100575.22
2022-12-19T20:38:38.346Z,100554.91
2022-12-19T20:41:05.180Z,100560.34
2022-12-19T20:43:32.078Z,100546.31
2022-12-19T20:46:03.445Z,100545.72
2022-12-19T20:48:29.958Z,100550.09
2022-12-19T20:51:00.838Z,100564.16
2022-12-19T20:53:27.867Z,100548.28
2022-12-19T20:55:58.175Z,100551.97
2022-12-19T20:58:28.946Z,100540.50
2022-12-19T21:01:05.550Z,100538.88
2022-12-19T21:03:32.616Z,100541.53
2022-12-19T21:06:00.496Z,100538.09
2022-12-19T21:08:27.387Z,100547.75
2022-12-19T21:10:54.259Z,100534.44
2022-12-19T21:13:24.066Z,100548.63
2022-12-19T21:15:59.664Z,100531.78
2022-12-19T21:18:26.929Z,100531.09
2022-12-19T21:20:54.030Z,100545.03
2022-12-19T21:23:20.672Z,100545.03
2022-12-19T21:25:47.243Z,100550.16
2022-12-19T21:28:13.741Z,100581.88
2022-12-19T21:30:40.202Z,100563.22
2022-12-19T21:33:06.717Z,100571.38
2022-12-19T21:35:34.557Z,100569.66
2022-12-19T21:38:01.769Z,100551.09
2022-12-19T21:40:28.389Z,100554.69
2022-12-19T21:42:54.813Z,100538.94
2022-12-19T21:45:21.433Z,100544.09
2022-12-19T21:47:48.208Z,100541.44
2022-12-19T21:50:15.243Z,100543.16
2022-12-19T21:52:41.822Z,100538.94
2022-12-19T21:55:09.257Z,100535.38
2022-12-19T21:57:40.201Z,100540.75
2022-12-19T22:00:08.693Z,100536.47
2022-12-19T22:02:35.453Z,100551.34
2022-12-19T22:05:02.592Z,100564.81
2022-12-19T22:07:29.154Z,100558.34
2022-12-19T22:09:55.917Z,100558.13
2022-12-19T22:12:22.571Z,100545.81
2022-12-19T22:14:49.083Z,100546.41
2022-12-19T22:17:15.605Z,100547.97
2022-12-19T22:19:42.076Z,100548.75
2022-12-19T22:22:08.617Z,100552.25
2022-12-19T22:24:35.283Z,100555.59
2022-12-19T22:27:01.808Z,100548.50
2022-12-19T22:29:28.268Z,100559.19
2022-12-19T22:31:55.116Z,100562.59
2022-12-19T22:34:21.886Z,100567.84
2022-12-19T22:36:49.776Z,100574.06
2022-12-19T22:39:18.233Z,100552.78
2022-12-19T22:41:45.164Z,100560.59
2022-12-19T22:44:20.705Z,100564.16
2022-12-19T22:46:47.461Z,100564.25
2022-12-19T22:49:14.602Z,100580.06
2022-12-19T22:51:41.957Z,100578.13
2022-12-19T22:54:08.793Z,100568.25
2022-12-19T22:56:36.021Z,100582.44
2022-12-19T22:59:06.394Z,100572.91
2022-12-19T23:01:35.807Z,100575.63
2022-12-19T23:04:03.406Z,100576.78
2022-12-19T23:06:31.868Z,100578.50
2022-12-19T23:08:58.427Z,100582.16
2022-12-19T23:11:28.992Z,100598.84
2022-12-19T23:13:55.435Z,100571.50
2022-12-19T23:16:22.065Z,100576.88
2022-12-19T23:18:48.615Z,100572.19
2022-12-19T23:21:17.865Z,100579.22
2022-12-19T23:23:45.765Z,100580.53
2022-12-19T23:26:18.384Z,100567.22
2022-12-19T23:28:50.817Z,100571.88
2022-12-19T23:31:17.411Z,100567.50
2022-12-19T23:33:44.105Z,100557.78
2022-12-19T23:36:10.823Z,100555.06
2022-12-19T23:38:37.538Z,100556.84
2022-12-19T23:41:08.797Z,100553.41
2022-12-19T23:43:35.981Z,100558.88
2022-12-19T23:46:16.167Z,100553.34
2022-12-19T23:48:43.180Z,100559.50
2022-12-19T23:51:18.790Z,100545.47
2022-12-19T23:53:46.025Z,100545.47
2022-12-19T23:56:15.193Z,100541.72
2022-12-19T23:58:42.073Z,100553.97
